| time (UTC) | temp C | wind direction | speed KPH | gust KPH | rain 1hr cm | rain 24hr cm | rain mn cm | humidity % | barometer mb |
| 20260906215037 | 38 | 184 | 4.8 | 14.5 | 0.00 | 0.00 | 0.00 | 23 | 1014.5 |
| 20260906214553 | 38 | 131 | 6.4 | 16.1 | 0.00 | 0.00 | 0.00 | 23 | 1014.7 |
| 20260906214039 | 38 | 39 | 4.8 | 16.1 | 0.00 | 0.00 | 0.00 | 24 | 1014.7 |
| 20260906213537 | 38 | 104 | 6.4 | 14.5 | 0.00 | 0.00 | 0.00 | 24 | 1014.9 |
| 20260906213044 | 38 | 157 | 6.4 | 14.5 | 0.00 | 0.00 | 0.00 | 25 | 1015.0 |
| 20260906212536 | 38 | 60 | 4.8 | 12.9 | 0.00 | 0.00 | 0.00 | 25 | 1015.1 |
| 20260906212037 | 38 | 5 | 3.2 | 11.3 | 0.00 | 0.00 | 0.00 | 25 | 1015.2 |
| 20260906211553 | 38 | 54 | 1.6 | 9.7 | 0.00 | 0.00 | 0.00 | 26 | 1015.3 |
| 20260906211036 | 37 | 242 | 4.8 | 9.7 | 0.00 | 0.00 | 0.00 | 26 | 1015.3 |
| 20260906210537 | 37 | 30 | 3.2 | 20.9 | 0.00 | 0.00 | 0.00 | 27 | 1015.5 |
| 20260906210105 | 37 | 47 | 11.3 | 20.9 | 0.00 | 0.00 | 0.00 | 27 | 1015.6 |
| 20260906205534 | 37 | 144 | 0.0 | 9.7 | 0.00 | 0.00 | 0.00 | 27 | 1015.6 |
| 20260906205033 | 36 | 155 | 3.2 | 14.5 | 0.00 | 0.00 | 0.00 | 27 | 1015.6 |
| 20260906204558 | 36 | 144 | 6.4 | 14.5 | 0.00 | 0.00 | 0.00 | 27 | 1015.7 |
| 20260906204036 | 37 | 211 | 3.2 | 9.7 | 0.00 | 0.00 | 0.00 | 27 | 1015.8 |
| 20260906203533 | 36 | 23 | 0.0 | 11.3 | 0.00 | 0.00 | 0.00 | 29 | 1015.7 |
| 20260906203050 | 36 | 0 | 1.6 | 11.3 | 0.00 | 0.00 | 0.00 | 29 | 1015.8 |
| 20260906202536 | 36 | 57 | 4.8 | 12.9 | 0.00 | 0.00 | 0.00 | 29 | 1015.7 |
| 20260906202036 | 36 | 48 | 3.2 | 12.9 | 0.00 | 0.00 | 0.00 | 29 | 1015.9 |
| 20260906201601 | 35 | 132 | 0.0 | 9.7 | 0.00 | 0.00 | 0.00 | 30 | 1016.0 |
| 20260906201037 | 35 | 144 | 0.0 | 12.9 | 0.00 | 0.00 | 0.00 | 30 | 1016.1 |
| 20260906200537 | 35 | 0 | 4.8 | 12.9 | 0.00 | 0.00 | 0.00 | 30 | 1016.1 |
| 20260906200059 | 35 | 138 | 3.2 | 14.5 | 0.00 | 0.00 | 0.00 | 29 | 1016.1 |
| 20260906195537 | 35 | 144 | 4.8 | 14.5 | 0.00 | 0.00 | 0.00 | 30 | 1016.2 |
| 20260906195036 | 34 | 65 | 3.2 | 11.3 | 0.00 | 0.00 | 0.00 | 31 | 1016.3 |
| 20260906194553 | 34 | 146 | 3.2 | 9.7 | 0.00 | 0.00 | 0.00 | 32 | 1016.3 |
| 20260906194036 | 33 | 134 | 3.2 | 16.1 | 0.00 | 0.00 | 0.00 | 33 | 1016.4 |
| 20260906193534 | 33 | 44 | 4.8 | 16.1 | 0.00 | 0.00 | 0.00 | 35 | 1016.5 |
| 20260906193051 | 33 | 100 | 4.8 | 12.9 | 0.00 | 0.00 | 0.00 | 35 | 1016.5 |
| 20260906192537 | 33 | 79 | 4.8 | 12.9 | 0.00 | 0.00 | 0.00 | 35 | 1016.5 |
| 20260906192036 | 33 | 130 | 1.6 | 8.0 | 0.00 | 0.00 | 0.00 | 34 | 1016.7 |
| 20260906191549 | 33 | 30 | 1.6 | 11.3 | 0.00 | 0.00 | 0.00 | 35 | 1016.8 |
| 20260906191037 | 32 | 198 | 3.2 | 16.1 | 0.00 | 0.00 | 0.00 | 34 | 1017.0 |
| 20260906190537 | 32 | 92 | 6.4 | 16.1 | 0.00 | 0.00 | 0.00 | 36 | 1017.0 |
| 20260906190140 | 32 | 5 | 3.2 | 14.5 | 0.00 | 0.00 | 0.00 | 35 | 1017.0 |
| 20260906185537 | 32 | 88 | 4.8 | 16.1 | 0.00 | 0.00 | 0.00 | 35 | 1017.2 |
| 20260906185037 | 32 | 66 | 6.4 | 16.1 | 0.00 | 0.00 | 0.00 | 38 | 1017.2 |
| 20260906184554 | 31 | 76 | 3.2 | 14.5 | 0.00 | 0.00 | 0.00 | 39 | 1017.2 |
| 20260906184036 | 31 | 46 | 6.4 | 14.5 | 0.00 | 0.00 | 0.00 | 39 | 1017.4 |
| 20260906183533 | 31 | 149 | 1.6 | 11.3 | 0.00 | 0.00 | 0.00 | 40 | 1017.5 |
| 20260906183059 | 31 | 31 | 1.6 | 11.3 | 0.00 | 0.00 | 0.00 | 42 | 1017.6 |
| 20260906182545 | 31 | 74 | 4.8 | 11.3 | 0.00 | 0.00 | 0.00 | 42 | 1017.7 |
| 20260906182036 | 31 | 98 | 3.2 | 11.3 | 0.00 | 0.00 | 0.00 | 42 | 1018.0 |
| 20260906181550 | 30 | 69 | 4.8 | 12.9 | 0.00 | 0.00 | 0.00 | 43 | 1018.0 |
| 20260906181037 | 30 | 96 | 3.2 | 12.9 | 0.00 | 0.00 | 0.00 | 44 | 1018.1 |
| 20260906180536 | 30 | 52 | 4.8 | 12.9 | 0.00 | 0.00 | 0.00 | 44 | 1018.3 |
| 20260906180045 | 29 | 136 | 3.2 | 11.3 | 0.00 | 0.00 | 0.00 | 45 | 1018.3 |
| 20260906175534 | 29 | 145 | 1.6 | 11.3 | 0.00 | 0.00 | 0.00 | 45 | 1018.3 |
| 20260906175037 | 29 | 107 | 1.6 | 11.3 | 0.00 | 0.00 | 0.00 | 46 | 1018.5 |
| 20260906174552 | 28 | 0 | 1.6 | 11.3 | 0.00 | 0.00 | 0.00 | 47 | 1018.6 |
| 20260906174037 | 28 | 294 | 1.6 | 9.7 | 0.00 | 0.00 | 0.00 | 48 | 1018.7 |
| 20260906173533 | 28 | 294 | 3.2 | 9.7 | 0.00 | 0.00 | 0.00 | 49 | 1018.9 |
| 20260906173057 | 27 | 200 | 1.6 | 9.7 | 0.00 | 0.00 | 0.00 | 50 | 1018.9 |
| 20260906172538 | 27 | 0 | 1.6 | 14.5 | 0.00 | 0.00 | 0.00 | 51 | 1018.9 |
| 20260906172037 | 27 | 277 | 8.0 | 14.5 | 0.00 | 0.00 | 0.00 | 51 | 1019.0 |
| 20260906171551 | 27 | 332 | 4.8 | 9.7 | 0.00 | 0.00 | 0.00 | 52 | 1019.0 |
| 20260906171034 | 26 | 286 | 1.6 | 6.4 | 0.00 | 0.00 | 0.00 | 53 | 1018.9 |
| 20260906170537 | 26 | 0 | 1.6 | 12.9 | 0.00 | 0.00 | 0.00 | 52 | 1019.0 |
| 20260906170053 | 27 | 281 | 6.4 | 12.9 | 0.00 | 0.00 | 0.00 | 51 | 1019.2 |
| 20260906165536 | 30 | 290 | 0.0 | 6.4 | 0.00 | 0.00 | 0.00 | 43 | 1019.2 |
| 20260906165033 | 36 | 35 | 1.6 | 9.7 | 0.00 | 0.00 | 0.00 | 34 | 1019.3 |
| 20260906164553 | 35 | 269 | 4.8 | 9.7 | 0.00 | 0.00 | 0.00 | 37 | 1019.3 |
| 20260906164037 | 29 | 315 | 1.6 | 8.0 | 0.00 | 0.00 | 0.00 | 50 | 1019.4 |
| 20260906163537 | 23 | 113 | 1.6 | 9.7 | 0.00 | 0.00 | 0.00 | 64 | 1019.4 |
| 20260906163054 | 23 | 331 | 3.2 | 9.7 | 0.00 | 0.00 | 0.00 | 65 | 1019.4 |
| 20260906162538 | 22 | 302 | 3.2 | 8.0 | 0.00 | 0.00 | 0.00 | 66 | 1019.4 |
| 20260906162037 | 22 | 360 | 1.6 | 11.3 | 0.00 | 0.00 | 0.00 | 67 | 1019.4 |
| 20260906161550 | 22 | 0 | 3.2 | 16.1 | 0.00 | 0.00 | 0.00 | 67 | 1019.4 |
| 20260906161037 | 22 | 324 | 4.8 | 16.1 | 0.00 | 0.00 | 0.00 | 67 | 1019.4 |
| 20260906160537 | 22 | 360 | 3.2 | 16.1 | 0.00 | 0.00 | 0.00 | 68 | 1019.5 |
| 20260906160058 | 22 | 360 | 6.4 | 16.1 | 0.00 | 0.00 | 0.00 | 69 | 1019.5 |
| 20260906155537 | 21 | 342 | 0.0 | 12.9 | 0.00 | 0.00 | 0.00 | 69 | 1019.5 |
| 20260906155035 | 21 | 312 | 3.2 | 12.9 | 0.00 | 0.00 | 0.00 | 70 | 1019.5 |
| 20260906154556 | 21 | 343 | 4.8 | 14.5 | 0.00 | 0.00 | 0.00 | 70 | 1019.4 |
| 20260906154037 | 21 | 352 | 3.2 | 14.5 | 0.00 | 0.00 | 0.00 | 70 | 1019.4 |
| 20260906153537 | 21 | 360 | 6.4 | 14.5 | 0.00 | 0.00 | 0.00 | 70 | 1019.4 |
| 20260906153053 | 21 | 360 | 6.4 | 12.9 | 0.00 | 0.00 | 0.00 | 71 | 1019.5 |
| 20260906152538 | 21 | 360 | 3.2 | 12.9 | 0.00 | 0.00 | 0.00 | 71 | 1019.5 |
| 20260906152118 | 21 | 360 | 3.2 | 11.3 | 0.00 | 0.00 | 0.00 | 71 | 1019.4 |
| 20260906151555 | 21 | 10 | 4.8 | 11.3 | 0.00 | 0.00 | 0.00 | 70 | 1019.4 |
| 20260906151041 | 21 | 360 | 6.4 | 11.3 | 0.00 | 0.00 | 0.00 | 68 | 1019.7 |
| 20260906150539 | 22 | 360 | 1.6 | 12.9 | 0.00 | 0.00 | 0.00 | 63 | 1019.7 |
| 20260906150045 | 25 | 340 | 1.6 | 12.9 | 0.00 | 0.00 | 0.00 | 58 | 1019.6 |
| 20260906145536 | 25 | 302 | 3.2 | 11.3 | 0.00 | 0.00 | 0.00 | 60 | 1019.6 |
| 20260906145038 | 23 | 39 | 4.8 | 14.5 | 0.00 | 0.00 | 0.00 | 66 | 1019.6 |
| 20260906144554 | 21 | 352 | 3.2 | 14.5 | 0.00 | 0.00 | 0.00 | 73 | 1019.6 |
| 20260906144034 | 20 | 290 | 4.8 | 14.5 | 0.00 | 0.00 | 0.00 | 75 | 1019.6 |
| 20260906143538 | 20 | 333 | 4.8 | 14.5 | 0.00 | 0.00 | 0.00 | 75 | 1019.7 |
| 20260906143054 | 19 | 331 | 4.8 | 12.9 | 0.00 | 0.00 | 0.00 | 76 | 1019.6 |
| 20260906142541 | 19 | 281 | 3.2 | 9.7 | 0.00 | 0.00 | 0.00 | 76 | 1019.6 |
| 20260906142038 | 19 | 331 | 4.8 | 9.7 | 0.00 | 0.00 | 0.00 | 77 | 1019.6 |
| 20260906141550 | 19 | 306 | 4.8 | 9.7 | 0.00 | 0.00 | 0.00 | 77 | 1019.6 |
| 20260906141037 | 18 | 317 | 3.2 | 8.0 | 0.00 | 0.00 | 0.00 | 77 | 1019.5 |
| 20260906140540 | 18 | 335 | 3.2 | 8.0 | 0.00 | 0.00 | 0.00 | 77 | 1019.6 |
| 20260906140050 | 18 | 320 | 4.8 | 8.0 | 0.00 | 0.00 | 0.00 | 77 | 1019.5 |
| 20260906135537 | 18 | 5 | 1.6 | 8.0 | 0.00 | 0.00 | 0.00 | 76 | 1019.5 |
| 20260906135037 | 18 | 360 | 3.2 | 6.4 | 0.00 | 0.00 | 0.00 | 75 | 1019.5 |
| 20260906134556 | 19 | 348 | 1.6 | 8.0 | 0.00 | 0.00 | 0.00 | 73 | 1019.4 |
| 20260906134037 | 20 | 319 | 4.8 | 8.0 | 0.00 | 0.00 | 0.00 | 57 | 1019.4 |
| 20260906133536 | 18 | 328 | 3.2 | 11.3 | 0.00 | 0.00 | 0.00 | 60 | 1019.4 |
| 20260906133109 | 18 | 321 | 4.8 | 11.3 | 0.00 | 0.00 | 0.00 | 62 | 1019.3 |
| 20260906132538 | 18 | 319 | 3.2 | 9.7 | 0.00 | 0.00 | 0.00 | 63 | 1019.3 |
| 20260906132038 | 17 | 360 | 4.8 | 9.7 | 0.00 | 0.00 | 0.00 | 65 | 1019.3 |
| 20260906131559 | 17 | 360 | 3.2 | 6.4 | 0.00 | 0.00 | 0.00 | 66 | 1019.2 |
| 20260906131037 | 17 | 0 | 3.2 | 6.4 | 0.00 | 0.00 | 0.00 | 67 | 1019.1 |
| 20260906130537 | 17 | 360 | 3.2 | 6.4 | 0.00 | 0.00 | 0.00 | 73 | 1019.1 |
| 20260906130104 | 16 | 300 | 1.6 | 8.0 | 0.00 | 0.00 | 0.00 | 89 | 1018.9 |
| 20260906125540 | 16 | 0 | 3.2 | 8.0 | 0.00 | 0.00 | 0.00 | 89 | 1018.9 |
| 20260906125040 | 15 | 294 | 3.2 | 6.4 | 0.00 | 0.00 | 0.00 | 89 | 1018.9 |
| 20260906124555 | 15 | 296 | 3.2 | 4.8 | 0.00 | 0.00 | 0.00 | 90 | 1018.9 |
| 20260906124038 | 15 | 287 | 1.6 | 4.8 | 0.00 | 0.00 | 0.00 | 90 | 1018.9 |
| 20260906123534 | 15 | 273 | 1.6 | 4.8 | 0.00 | 0.00 | 0.00 | 89 | 1018.9 |
| 20260906123054 | 15 | 0 | 0.0 | 4.8 | 0.00 | 0.00 | 0.00 | 89 | 1019.0 |
| 20260906122538 | 15 | 283 | 0.0 | 3.2 | 0.00 | 0.00 | 0.00 | 90 | 1019.0 |
| 20260906122039 | 15 | 0 | 0.0 | 6.4 | 0.00 | 0.00 | 0.00 | 90 | 1019.0 |
| 20260906121552 | 15 | 0 | 0.0 | 6.4 | 0.00 | 0.00 | 0.00 | 90 | 1019.0 |
| 20260906121041 | 15 | 302 | 1.6 | 6.4 | 0.00 | 0.00 | 0.00 | 89 | 1018.9 |
| 20260906120537 | 15 | 302 | 3.2 | 6.4 | 0.00 | 0.00 | 0.00 | 89 | 1018.9 |
| 20260906120052 | 15 | 296 | 3.2 | 9.7 | 0.00 | 0.00 | 0.00 | 88 | 1019.0 |
| 20260906115537 | 15 | 300 | 3.2 | 9.7 | 0.00 | 0.00 | 0.00 | 88 | 1019.0 |
| 20260906115036 | 16 | 284 | 0.0 | 3.2 | 0.00 | 0.00 | 0.00 | 88 | 1019.2 |
| 20260906114554 | 16 | 0 | 0.0 | 4.8 | 0.00 | 0.00 | 0.00 | 89 | 1019.1 |
| 20260906114037 | 16 | 0 | 0.0 | 6.4 | 0.00 | 0.00 | 0.00 | 89 | 1018.9 |
| 20260906113536 | 16 | 321 | 1.6 | 6.4 | 0.00 | 0.00 | 0.00 | 89 | 1018.9 |
| 20260906113058 | 15 | 0 | 0.0 | 6.4 | 0.00 | 0.00 | 0.00 | 89 | 1019.0 |
| 20260906112534 | 15 | 0 | 1.6 | 9.7 | 0.00 | 0.00 | 0.00 | 88 | 1018.9 |
| 20260906112038 | 15 | 322 | 4.8 | 9.7 | 0.00 | 0.00 | 0.00 | 88 | 1018.7 |
| 20260906111554 | 15 | 326 | 3.2 | 6.4 | 0.00 | 0.00 | 0.00 | 88 | 1018.7 |
| 20260906111034 | 16 | 302 | 1.6 | 4.8 | 0.00 | 0.00 | 0.00 | 88 | 1018.7 |
| 20260906110537 | 15 | 348 | 0.0 | 3.2 | 0.00 | 0.00 | 0.00 | 88 | 1018.7 |
| 20260906110057 | 15 | 0 | 0.0 | 4.8 | 0.00 | 0.00 | 0.00 | 87 | 1018.6 |
| 20260906105535 | 16 | 0 | 0.0 | 4.8 | 0.00 | 0.00 | 0.00 | 86 | 1018.5 |
| 20260906105036 | 16 | 337 | 0.0 | 4.8 | 0.00 | 0.00 | 0.00 | 86 | 1018.6 |
| 20260906104546 | 16 | 0 | 0.0 | 4.8 | 0.00 | 0.00 | 0.00 | 86 | 1018.6 |
| 20260906104037 | 16 | 342 | 0.0 | 4.8 | 0.00 | 0.00 | 0.00 | 86 | 1018.6 |
| 20260906103536 | 16 | 0 | 1.6 | 4.8 | 0.00 | 0.00 | 0.00 | 85 | 1018.5 |
| 20260906103054 | 16 | 352 | 0.0 | 3.2 | 0.00 | 0.00 | 0.00 | 84 | 1018.6 |
| 20260906102536 | 16 | 0 | 0.0 | 3.2 | 0.00 | 0.00 | 0.00 | 85 | 1018.6 |
| 20260906102036 | 16 | 0 | 0.0 | 4.8 | 0.00 | 0.00 | 0.00 | 85 | 1018.5 |
| 20260906101553 | 16 | 0 | 0.0 | 8.0 | 0.00 | 0.00 | 0.00 | 85 | 1018.7 |
| 20260906101037 | 16 | 34 | 3.2 | 8.0 | 0.00 | 0.00 | 0.00 | 85 | 1018.5 |
| 20260906100538 | 16 | 36 | 1.6 | 4.8 | 0.00 | 0.00 | 0.00 | 85 | 1018.6 |
| 20260906100051 | 16 | 30 | 0.0 | 8.0 | 0.00 | 0.00 | 0.00 | 85 | 1018.6 |
| 20260906095534 | 16 | 17 | 3.2 | 8.0 | 0.00 | 0.00 | 0.00 | 85 | 1018.7 |
| 20260906095037 | 17 | 18 | 3.2 | 6.4 | 0.00 | 0.00 | 0.00 | 84 | 1018.6 |
| 20260906094600 | 17 | 0 | 0.0 | 4.8 | 0.00 | 0.00 | 0.00 | 84 | 1018.7 |
| 20260906094037 | 17 | 0 | 0.0 | 4.8 | 0.00 | 0.00 | 0.00 | 84 | 1018.7 |
| 20260906093536 | 17 | 45 | 0.0 | 4.8 | 0.00 | 0.00 | 0.00 | 84 | 1018.6 |
| 20260906093102 | 17 | 0 | 0.0 | 6.4 | 0.00 | 0.00 | 0.00 | 84 | 1018.7 |
| 20260906092536 | 17 | 360 | 0.0 | 6.4 | 0.00 | 0.00 | 0.00 | 84 | 1018.5 |
| 20260906092038 | 17 | 360 | 1.6 | 4.8 | 0.00 | 0.00 | 0.00 | 83 | 1018.5 |
| 20260906091550 | 17 | 360 | 0.0 | 4.8 | 0.00 | 0.00 | 0.00 | 83 | 1018.5 |
| 20260906091037 | 17 | 0 | 0.0 | 6.4 | 0.00 | 0.00 | 0.00 | 83 | 1018.5 |
| 20260906090539 | 17 | 360 | 3.2 | 8.0 | 0.00 | 0.00 | 0.00 | 82 | 1018.4 |
| 20260906090138 | 17 | 360 | 3.2 | 8.0 | 0.00 | 0.00 | 0.00 | 81 | 1018.4 |
| 20260906085534 | 17 | 360 | 3.2 | 9.7 | 0.00 | 0.00 | 0.00 | 80 | 1018.4 |
| 20260906085037 | 17 | 360 | 1.6 | 9.7 | 0.00 | 0.00 | 0.00 | 79 | 1018.2 |
| 20260906084603 | 18 | 360 | 4.8 | 16.1 | 0.00 | 0.00 | 0.00 | 78 | 1018.1 |
| 20260906084036 | 18 | 360 | 8.0 | 16.1 | 0.00 | 0.00 | 0.00 | 77 | 1018.0 |
| 20260906083535 | 18 | 360 | 8.0 | 16.1 | 0.00 | 0.00 | 0.00 | 76 | 1017.9 |
| 20260906083053 | 18 | 360 | 8.0 | 16.1 | 0.00 | 0.00 | 0.00 | 75 | 1017.9 |
| 20260906082536 | 18 | 360 | 6.4 | 14.5 | 0.00 | 0.00 | 0.00 | 75 | 1017.9 |
| 20260906082034 | 18 | 360 | 6.4 | 16.1 | 0.00 | 0.00 | 0.00 | 74 | 1017.9 |
| 20260906081552 | 18 | 360 | 8.0 | 16.1 | 0.00 | 0.00 | 0.00 | 73 | 1017.9 |
| 20260906081035 | 18 | 360 | 8.0 | 16.1 | 0.00 | 0.00 | 0.00 | 72 | 1017.9 |
| 20260906080537 | 18 | 360 | 9.7 | 17.7 | 0.00 | 0.00 | 0.00 | 70 | 1017.9 |
| 20260906075535 | 18 | 360 | 8.0 | 14.5 | 0.00 | 0.00 | 0.00 | 67 | 1018.0 |
| 20260906075035 | 18 | 360 | 3.2 | 9.7 | 0.00 | 0.00 | 0.00 | 67 | 1018.1 |
| 20260906074554 | 19 | 360 | 6.4 | 9.7 | 0.00 | 0.00 | 0.00 | 65 | 1018.2 |
| 20260906074033 | 19 | 360 | 4.8 | 9.7 | 0.00 | 0.00 | 0.00 | 65 | 1018.2 |
| 20260906073533 | 19 | 360 | 6.4 | 12.9 | 0.00 | 0.00 | 0.00 | 65 | 1018.2 |
| 20260906073043 | 20 | 360 | 8.0 | 12.9 | 0.00 | 0.00 | 0.00 | 64 | 1018.3 |
| 20260906072536 | 20 | 360 | 6.4 | 12.9 | 0.00 | 0.00 | 0.00 | 64 | 1018.2 |
| 20260906072035 | 19 | 360 | 3.2 | 6.4 | 0.00 | 0.00 | 0.00 | 65 | 1018.2 |
| 20260906071553 | 19 | 0 | 0.0 | 0.0 | 0.00 | 0.00 | 0.00 | 64 | 1018.2 |
| 20260906071033 | 19 | 0 | 0.0 | 1.6 | 0.00 | 0.00 | 0.00 | 63 | 1018.2 |
| 20260906070536 | 20 | 0 | 0.0 | 3.2 | 0.00 | 0.00 | 0.00 | 62 | 1018.2 |
| 20260906070052 | 20 | 0 | 1.6 | 3.2 | 0.00 | 0.00 | 0.00 | 61 | 1018.0 |
| 20260906065537 | 20 | 360 | 1.6 | 3.2 | 0.00 | 0.00 | 0.00 | 60 | 1017.9 |
| 20260906065035 | 20 | 0 | 0.0 | 3.2 | 0.00 | 0.00 | 0.00 | 59 | 1017.9 |
| 20260906064549 | 20 | 0 | 0.0 | 4.8 | 0.00 | 0.00 | 0.00 | 59 | 1018.0 |
| 20260906064033 | 20 | 0 | 1.6 | 4.8 | 0.00 | 0.00 | 0.00 | 58 | 1017.8 |
| 20260906063534 | 20 | 360 | 1.6 | 4.8 | 0.00 | 0.00 | 0.00 | 57 | 1017.7 |
| 20260906063057 | 21 | 360 | 1.6 | 8.0 | 0.00 | 0.00 | 0.00 | 57 | 1017.7 |
| 20260906062535 | 21 | 360 | 1.6 | 9.7 | 0.00 | 0.00 | 0.00 | 57 | 1017.7 |
| 20260906062036 | 21 | 360 | 3.2 | 9.7 | 0.00 | 0.00 | 0.00 | 55 | 1017.8 |
| 20260906061604 | 21 | 360 | 3.2 | 14.5 | 0.00 | 0.00 | 0.00 | 55 | 1017.8 |
| 20260906061035 | 21 | 360 | 8.0 | 14.5 | 0.00 | 0.00 | 0.00 | 55 | 1018.0 |
| 20260906060533 | 21 | 360 | 6.4 | 12.9 | 0.00 | 0.00 | 0.00 | 54 | 1018.0 |
| 20260906060052 | 21 | 28 | 1.6 | 8.0 | 0.00 | 0.00 | 0.00 | 53 | 1017.9 |
| 20260906055535 | 22 | 334 | 3.2 | 11.3 | 0.00 | 0.00 | 0.00 | 51 | 1017.9 |
| 20260906055035 | 22 | 313 | 4.8 | 12.9 | 0.00 | 0.00 | 0.00 | 50 | 1018.1 |
| 20260906054553 | 22 | 280 | 6.4 | 14.5 | 0.00 | 0.00 | 0.00 | 51 | 1018.2 |
| 20260906054036 | 22 | 291 | 4.8 | 14.5 | 0.00 | 0.00 | 0.00 | 51 | 1018.1 |
| 20260906053533 | 22 | 288 | 9.7 | 14.5 | 0.00 | 0.00 | 0.00 | 52 | 1018.0 |
| 20260906053107 | 22 | 298 | 3.2 | 9.7 | 0.00 | 0.00 | 0.00 | 52 | 1018.2 |
| 20260906052539 | 22 | 263 | 1.6 | 11.3 | 0.00 | 0.00 | 0.00 | 52 | 1018.2 |
| 20260906052036 | 22 | 254 | 1.6 | 14.5 | 0.00 | 0.00 | 0.00 | 53 | 1018.3 |
| 20260906051551 | 22 | 267 | 6.4 | 14.5 | 0.00 | 0.00 | 0.00 | 53 | 1018.4 |
| 20260906051035 | 22 | 0 | 3.2 | 6.4 | 0.00 | 0.00 | 0.00 | 52 | 1018.3 |
| 20260906050538 | 22 | 257 | 0.0 | 3.2 | 0.00 | 0.00 | 0.00 | 51 | 1018.1 |
| 20260906050049 | 22 | 0 | 0.0 | 4.8 | 0.00 | 0.00 | 0.00 | 51 | 1017.9 |
| 20260906045534 | 22 | 0 | 0.0 | 4.8 | 0.00 | 0.00 | 0.00 | 51 | 1017.7 |
| 20260906045036 | 22 | 9 | 0.0 | 3.2 | 0.00 | 0.00 | 0.00 | 50 | 1017.6 |
| 20260906044546 | 22 | 11 | 0.0 | 3.2 | 0.00 | 0.00 | 0.00 | 51 | 1017.6 |
| 20260906044038 | 22 | 0 | 0.0 | 4.8 | 0.00 | 0.00 | 0.00 | 50 | 1017.7 |
| 20260906043536 | 22 | 11 | 1.6 | 6.4 | 0.00 | 0.00 | 0.00 | 50 | 1017.6 |
| 20260906043042 | 22 | 9 | 1.6 | 6.4 | 0.00 | 0.00 | 0.00 | 49 | 1017.6 |
| 20260906042533 | 22 | 37 | 1.6 | 4.8 | 0.00 | 0.00 | 0.00 | 49 | 1017.6 |
| 20260906042036 | 22 | 71 | 1.6 | 8.0 | 0.00 | 0.00 | 0.00 | 47 | 1017.5 |
| 20260906041557 | 23 | 0 | 1.6 | 14.5 | 0.00 | 0.00 | 0.00 | 44 | 1017.6 |
| 20260906041034 | 23 | 14 | 6.4 | 14.5 | 0.00 | 0.00 | 0.00 | 44 | 1017.5 |
| 20260906040533 | 23 | 37 | 6.4 | 14.5 | 0.00 | 0.00 | 0.00 | 43 | 1017.3 |
| 20260906040052 | 23 | 22 | 6.4 | 16.1 | 0.00 | 0.00 | 0.00 | 42 | 1017.3 |
| 20260906035539 | 23 | 29 | 6.4 | 16.1 | 0.00 | 0.00 | 0.00 | 41 | 1017.2 |
| 20260906035035 | 23 | 9 | 6.4 | 16.1 | 0.00 | 0.00 | 0.00 | 39 | 1017.2 |
| 20260906034547 | 23 | 9 | 4.8 | 14.5 | 0.00 | 0.00 | 0.00 | 38 | 1017.3 |
| 20260906034034 | 24 | 12 | 3.2 | 11.3 | 0.00 | 0.00 | 0.00 | 37 | 1017.4 |
| 20260906033538 | 24 | 11 | 4.8 | 14.5 | 0.00 | 0.00 | 0.00 | 36 | 1017.3 |
| 20260906033055 | 25 | 19 | 6.4 | 17.7 | 0.00 | 0.00 | 0.00 | 35 | 1017.1 |
| 20260906032535 | 25 | 352 | 9.7 | 19.3 | 0.00 | 0.00 | 0.00 | 35 | 1017.0 |
| 20260906032035 | 25 | 21 | 9.7 | 19.3 | 0.00 | 0.00 | 0.00 | 34 | 1016.9 |
| 20260906031550 | 25 | 14 | 11.3 | 19.3 | 0.00 | 0.00 | 0.00 | 34 | 1016.9 |
| 20260906031035 | 25 | 5 | 12.9 | 20.9 | 0.00 | 0.00 | 0.00 | 34 | 1016.7 |
| 20260906030536 | 25 | 346 | 12.9 | 20.9 | 0.00 | 0.00 | 0.00 | 34 | 1016.7 |
| 20260906030052 | 25 | 5 | 12.9 | 19.3 | 0.00 | 0.00 | 0.00 | 34 | 1016.6 |
| 20260906025535 | 25 | 13 | 12.9 | 19.3 | 0.00 | 0.00 | 0.00 | 34 | 1016.5 |
| 20260906025038 | 25 | 13 | 6.4 | 17.7 | 0.00 | 0.00 | 0.00 | 33 | 1016.5 |
| 20260906024605 | 26 | 22 | 6.4 | 17.7 | 0.00 | 0.00 | 0.00 | 33 | 1016.5 |
| 20260906024036 | 26 | 27 | 6.4 | 17.7 | 0.00 | 0.00 | 0.00 | 32 | 1016.4 |
| 20260906023534 | 26 | 335 | 8.0 | 19.3 | 0.00 | 0.00 | 0.00 | 32 | 1016.4 |
| 20260906023102 | 26 | 298 | 9.7 | 19.3 | 0.00 | 0.00 | 0.00 | 32 | 1016.3 |
| 20260906022536 | 26 | 324 | 8.0 | 19.3 | 0.00 | 0.00 | 0.00 | 33 | 1016.2 |
| 20260906022035 | 26 | 360 | 9.7 | 22.5 | 0.00 | 0.00 | 0.00 | 33 | 1016.2 |
| 20260906021551 | 26 | 360 | 12.9 | 22.5 | 0.00 | 0.00 | 0.00 | 32 | 1016.0 |
| 20260906021035 | 26 | 360 | 12.9 | 24.1 | 0.00 | 0.00 | 0.00 | 31 | 1015.9 |
| 20260906020534 | 26 | 360 | 14.5 | 27.4 | 0.00 | 0.00 | 0.00 | 31 | 1015.8 |
| 20260906020051 | 26 | 360 | 17.7 | 27.4 | 0.00 | 0.00 | 0.00 | 30 | 1015.7 |
| 20260906015534 | 26 | 360 | 16.1 | 24.1 | 0.00 | 0.00 | 0.00 | 30 | 1015.7 |
| 20260906015034 | 27 | 360 | 16.1 | 24.1 | 0.00 | 0.00 | 0.00 | 30 | 1015.7 |
| 20260906014555 | 27 | 360 | 16.1 | 25.7 | 0.00 | 0.00 | 0.00 | 30 | 1015.7 |
| 20260906014034 | 27 | 360 | 17.7 | 25.7 | 0.00 | 0.00 | 0.00 | 29 | 1015.5 |
| 20260906013534 | 27 | 360 | 11.3 | 17.7 | 0.00 | 0.00 | 0.00 | 29 | 1015.7 |
| 20260906013053 | 27 | 360 | 8.0 | 22.5 | 0.00 | 0.00 | 0.00 | 29 | 1015.6 |
| 20260906012535 | 28 | 360 | 11.3 | 22.5 | 0.00 | 0.00 | 0.00 | 27 | 1015.6 |
| 20260906012035 | 28 | 360 | 12.9 | 22.5 | 0.00 | 0.00 | 0.00 | 27 | 1015.4 |
| 20260906011559 | 28 | 360 | 8.0 | 16.1 | 0.00 | 0.00 | 0.00 | 27 | 1015.4 |
| 20260906011034 | 29 | 360 | 8.0 | 17.7 | 0.00 | 0.00 | 0.00 | 26 | 1015.4 |
| 20260906010534 | 29 | 360 | 9.7 | 17.7 | 0.00 | 0.00 | 0.00 | 26 | 1015.4 |
| 20260906010124 | 29 | 360 | 9.7 | 16.1 | 0.00 | 0.00 | 0.00 | 25 | 1015.3 |
| 20260906005534 | 30 | 305 | 6.4 | 12.9 | 0.00 | 0.00 | 0.00 | 25 | 1015.3 |
| 20260906005034 | 30 | 306 | 6.4 | 11.3 | 0.00 | 0.00 | 0.00 | 24 | 1015.4 |
| 20260906004552 | 31 | 325 | 6.4 | 12.9 | 0.00 | 0.00 | 0.00 | 24 | 1015.4 |
| 20260906004033 | 31 | 323 | 6.4 | 12.9 | 0.00 | 0.00 | 0.00 | 23 | 1015.3 |
| 20260906003533 | 31 | 342 | 4.8 | 12.9 | 0.00 | 0.00 | 0.00 | 23 | 1015.4 |
| 20260906003050 | 32 | 12 | 4.8 | 11.3 | 0.00 | 0.00 | 0.00 | 25 | 1015.4 |
| 20260906002535 | 32 | 38 | 3.2 | 6.4 | 0.00 | 0.00 | 0.00 | 25 | 1015.3 |
| 20260906002035 | 32 | 0 | 0.0 | 8.0 | 0.00 | 0.00 | 0.00 | 24 | 1015.3 |
| 20260906001602 | 32 | 54 | 3.2 | 8.0 | 0.00 | 0.00 | 0.00 | 24 | 1015.3 |
| 20260906001034 | 32 | 63 | 4.8 | 12.9 | 0.00 | 0.00 | 0.00 | 23 | 1015.2 |
| 20260906000534 | 32 | 57 | 6.4 | 12.9 | 0.00 | 0.00 | 0.00 | 23 | 1015.1 |
| 20260906000045 | 32 | 52 | 6.4 | 17.7 | 0.00 | 0.00 | 0.00 | 24 | 1015.2 |
| 20260905235534 | 32 | 16 | 9.7 | 17.7 | 0.00 | 0.00 | 0.00 | 24 | 1015.1 |
| 20260905235034 | 32 | 5 | 8.0 | 16.1 | 0.00 | 0.00 | 0.00 | 24 | 1015.2 |
| 20260905234556 | 33 | 14 | 8.0 | 20.9 | 0.00 | 0.00 | 0.00 | 23 | 1015.2 |
| 20260905234036 | 33 | 30 | 9.7 | 20.9 | 0.00 | 0.00 | 0.00 | 23 | 1015.2 |
| 20260905233535 | 33 | 41 | 11.3 | 20.9 | 0.00 | 0.00 | 0.00 | 23 | 1015.2 |
| 20260905233051 | 33 | 15 | 9.7 | 17.7 | 0.00 | 0.00 | 0.00 | 24 | 1015.1 |
| 20260905232536 | 33 | 72 | 9.7 | 17.7 | 0.00 | 0.00 | 0.00 | 23 | 1015.1 |
| 20260905232035 | 33 | 45 | 8.0 | 14.5 | 0.00 | 0.00 | 0.00 | 22 | 1015.1 |
| 20260905231550 | 33 | 53 | 4.8 | 11.3 | 0.00 | 0.00 | 0.00 | 22 | 1015.1 |
| 20260905231034 | 33 | 122 | 3.2 | 12.9 | 0.00 | 0.00 | 0.00 | 21 | 1015.1 |
| 20260905230534 | 33 | 77 | 1.6 | 12.9 | 0.00 | 0.00 | 0.00 | 21 | 1015.0 |
| 20260905230107 | 33 | 192 | 4.8 | 14.5 | 0.00 | 0.00 | 0.00 | 20 | 1015.0 |
| 20260905225534 | 33 | 0 | 6.4 | 14.5 | 0.00 | 0.00 | 0.00 | 20 | 1014.8 |
| 20260905225033 | 33 | 157 | 3.2 | 12.9 | 0.00 | 0.00 | 0.00 | 20 | 1014.8 |
| 20260905224552 | 33 | 155 | 3.2 | 11.3 | 0.00 | 0.00 | 0.00 | 21 | 1014.9 |
| 20260905224034 | 33 | 141 | 3.2 | 11.3 | 0.00 | 0.00 | 0.00 | 21 | 1015.0 |
| 20260905223534 | 34 | 63 | 3.2 | 11.3 | 0.00 | 0.00 | 0.00 | 22 | 1015.0 |
| 20260905223049 | 34 | 72 | 3.2 | 14.5 | 0.00 | 0.00 | 0.00 | 21 | 1014.9 |
| 20260905222533 | 34 | 113 | 9.7 | 14.5 | 0.00 | 0.00 | 0.00 | 21 | 1015.0 |
| 20260905222034 | 34 | 136 | 8.0 | 19.3 | 0.00 | 0.00 | 0.00 | 21 | 1015.0 |
| 20260905221557 | 35 | 118 | 4.8 | 19.3 | 0.00 | 0.00 | 0.00 | 18 | 1015.0 |
| 20260905221036 | 35 | 106 | 6.4 | 14.5 | 0.00 | 0.00 | 0.00 | 19 | 1015.0 |
| 20260905220533 | 35 | 69 | 4.8 | 12.9 | 0.00 | 0.00 | 0.00 | 18 | 1015.1 |
| 20260905220054 | 35 | 54 | 1.6 | 12.9 | 0.00 | 0.00 | 0.00 | 17 | 1015.3 |
| 20260905215537 | 35 | 330 | 6.4 | 11.3 | 0.00 | 0.00 | 0.00 | 16 | 1015.2 |